There are multiple Weather-warnings   Click here for more information


Meteo18 Weather Cam more information Meteo18 Weather Cam


warning for Thunderstorms more information blitzortung!


Rain radar more information rain snow radar


Visit our other weather sites:

Template documentation
and downloads

And another site



Weather Underground History page Text

Daily Summary for March 10, 2016 Units:  Metric    English   Both
« Previous Day
Next Day »
Daily Weekly Monthly Yearly Custom
  High: Low: Average:
Temperature: 9.4 °C -0.2 °C 5.3 °C
Dew Point: 5.3 °C -0.8 °C 3.2 °C
Humidity: 98 % 71 % 87 %
Wind Speed: 9.7 km/h 0.0 km/h 0.8 km/h
Wind Gust: 14.5 km/h - -
Wind:- - ENE
Pressure: 1021.2 hPa 1004.6 hPa -
Precipitation: 0.0 mm    
Historical Graphs
 
 
Tabular Data for March 10, 2016
Time Temperature Dew Point Pressure Wind Wind Speed Wind Gust Humidity Rainfall Rate (Hourly)
00:02 3.8 °C 3.1 °C 1004.6 hPa SW 1.6 km/h 3.2 km/h 95 % 0.0 mm
00:07 3.8 °C 3.1 °C 1005.0 hPa Calm   3.2 km/h 95 % 0.0 mm
00:12 3.6 °C 2.9 °C 1005.0 hPa Calm   3.2 km/h 95 % 0.0 mm
00:17 3.4 °C 2.7 °C 1005.0 hPa Calm   3.2 km/h 95 % 0.0 mm
00:22 3.2 °C 2.5 °C 1005.0 hPa Calm   3.2 km/h 95 % 0.0 mm
00:27 3.2 °C 2.5 °C 1005.3 hPa Calm   1.6 km/h 95 % 0.0 mm
00:32 3.1 °C 2.4 °C 1005.3 hPa Calm   1.6 km/h 95 % 0.0 mm
00:37 3.1 °C 2.4 °C 1005.6 hPa Calm   1.6 km/h 95 % 0.0 mm
00:42 3.1 °C 2.5 °C 1005.6 hPa Calm     96 % 0.0 mm
00:47 3.1 °C 2.5 °C 1005.6 hPa Calm     96 % 0.0 mm
00:52 3.2 °C 2.6 °C 1005.6 hPa Calm     96 % 0.0 mm
00:57 3.3 °C 2.7 °C 1005.6 hPa Calm   1.6 km/h 96 % 0.0 mm
01:02 3.4 °C 2.8 °C 1005.6 hPa Calm   1.6 km/h 96 % 0.0 mm
01:07 3.5 °C 2.9 °C 1005.6 hPa Calm   1.6 km/h 96 % 0.0 mm
01:12 3.4 °C 2.8 °C 1005.6 hPa Calm   1.6 km/h 96 % 0.0 mm
01:17 3.2 °C 2.5 °C 1006.0 hPa Calm   1.6 km/h 95 % 0.0 mm
01:22 3.2 °C 2.6 °C 1005.6 hPa SW 1.6 km/h 1.6 km/h 96 % 0.0 mm
01:32 3.0 °C 2.4 °C 1006.0 hPa Calm   3.2 km/h 96 % 0.0 mm
01:37 2.9 °C 2.3 °C 1006.0 hPa Calm   3.2 km/h 96 % 0.0 mm
01:42 2.9 °C 2.3 °C 1006.0 hPa Calm   3.2 km/h 96 % 0.0 mm
01:47 2.9 °C 2.3 °C 1006.3 hPa Calm   3.2 km/h 96 % 0.0 mm
01:52 2.8 °C 2.1 °C 1006.3 hPa Calm   1.6 km/h 95 % 0.0 mm
01:57 2.7 °C 2.0 °C 1006.3 hPa Calm     95 % 0.0 mm
02:02 2.4 °C 1.7 °C 1006.7 hPa Calm   1.6 km/h 95 % 0.0 mm
02:07 2.3 °C 1.6 °C 1006.7 hPa Calm   1.6 km/h 95 % 0.0 mm
02:17 2.0 °C 1.3 °C 1006.7 hPa Calm   1.6 km/h 95 % 0.0 mm
02:22 1.8 °C 1.1 °C 1006.7 hPa Calm   1.6 km/h 95 % 0.0 mm
02:27 1.6 °C 0.9 °C 1006.7 hPa Calm   1.6 km/h 95 % 0.0 mm
02:32 1.3 °C 0.6 °C 1006.7 hPa Calm     95 % 0.0 mm
02:37 1.1 °C 0.4 °C 1006.7 hPa Calm     95 % 0.0 mm
02:42 0.8 °C 0.1 °C 1007.0 hPa Calm     95 % 0.0 mm
02:47 0.7 °C 0.0 °C 1007.0 hPa Calm     95 % 0.0 mm
02:52 0.6 °C -0.1 °C 1007.0 hPa Calm     95 % 0.0 mm
02:57 0.5 °C -0.2 °C 1007.0 hPa Calm     95 % 0.0 mm
03:02 0.4 °C -0.3 °C 1007.0 hPa Calm     95 % 0.0 mm
03:12 0.1 °C -0.5 °C 1007.3 hPa Calm     96 % 0.0 mm
03:17 0.2 °C -0.4 °C 1007.3 hPa Calm     96 % 0.0 mm
03:22 0.1 °C -0.5 °C 1007.3 hPa Calm     96 % 0.0 mm
03:27 -0.1 °C -0.7 °C 1007.3 hPa Calm     96 % 0.0 mm
03:32 -0.2 °C -0.8 °C 1007.3 hPa Calm     96 % 0.0 mm
03:37 -0.2 °C -0.8 °C 1007.3 hPa Calm     96 % 0.0 mm
03:42 -0.1 °C -0.5 °C 1007.7 hPa Calm     97 % 0.0 mm
03:47 -0.2 °C -0.8 °C 1007.7 hPa Calm     96 % 0.0 mm
03:52 -0.2 °C -0.8 °C 1008.0 hPa Calm     96 % 0.0 mm
03:57 0.1 °C -0.3 °C 1008.0 hPa Calm     97 % 0.0 mm
04:02 0.2 °C -0.2 °C 1008.4 hPa Calm     97 % 0.0 mm
04:07 0.2 °C -0.2 °C 1008.4 hPa Calm     97 % 0.0 mm
04:12 0.3 °C -0.1 °C 1008.4 hPa Calm     97 % 0.0 mm
04:17 0.6 °C 0.2 °C 1008.7 hPa Calm     97 % 0.0 mm
04:22 0.9 °C 0.5 °C 1008.7 hPa Calm     97 % 0.0 mm
04:27 1.1 °C 0.7 °C 1008.7 hPa Calm     97 % 0.0 mm
04:32 1.3 °C 1.0 °C 1008.7 hPa Calm     98 % 0.0 mm
04:37 1.3 °C 0.9 °C 1009.0 hPa Calm     97 % 0.0 mm
04:42 1.4 °C 1.0 °C 1009.0 hPa Calm     97 % 0.0 mm
04:47 1.5 °C 1.1 °C 1009.0 hPa Calm     97 % 0.0 mm
04:52 1.6 °C 1.2 °C 1009.4 hPa Calm     97 % 0.0 mm
04:57 1.6 °C 1.2 °C 1009.4 hPa Calm     97 % 0.0 mm
05:02 1.7 °C 1.3 °C 1009.4 hPa Calm     97 % 0.0 mm
05:07 1.7 °C 1.3 °C 1009.7 hPa Calm     97 % 0.0 mm
05:12 1.7 °C 1.3 °C 1009.7 hPa Calm     97 % 0.0 mm
05:17 1.7 °C 1.3 °C 1009.7 hPa Calm   1.6 km/h 97 % 0.0 mm
05:22 1.8 °C 1.4 °C 1010.0 hPa Calm   1.6 km/h 97 % 0.0 mm
05:27 1.9 °C 1.5 °C 1010.0 hPa Calm   1.6 km/h 97 % 0.0 mm
05:32 2.1 °C 1.7 °C 1010.0 hPa Calm   1.6 km/h 97 % 0.0 mm
05:37 2.1 °C 1.7 °C 1010.0 hPa Calm   1.6 km/h 97 % 0.0 mm
05:47 2.2 °C 1.8 °C 1010.4 hPa Calm     97 % 0.0 mm
05:52 2.2 °C 1.8 °C 1010.4 hPa Calm     97 % 0.0 mm
05:57 2.3 °C 1.9 °C 1010.4 hPa Calm     97 % 0.0 mm
06:02 2.3 °C 1.9 °C 1010.7 hPa Calm     97 % 0.0 mm
06:07 2.3 °C 1.9 °C 1010.7 hPa Calm     97 % 0.0 mm
06:12 2.3 °C 1.9 °C 1010.7 hPa Calm     97 % 0.0 mm
06:17 2.3 °C 1.9 °C 1010.7 hPa Calm     97 % 0.0 mm
06:22 2.3 °C 1.9 °C 1011.1 hPa Calm     97 % 0.0 mm
06:27 2.2 °C 1.8 °C 1010.7 hPa Calm     97 % 0.0 mm
06:32 2.2 °C 1.8 °C 1011.1 hPa Calm     97 % 0.0 mm
06:37 2.1 °C 1.7 °C 1011.1 hPa Calm     97 % 0.0 mm
06:42 1.9 °C 1.5 °C 1011.1 hPa Calm     97 % 0.0 mm
06:47 1.8 °C 1.4 °C 1011.1 hPa Calm     97 % 0.0 mm
06:52 1.8 °C 1.4 °C 1011.4 hPa Calm     97 % 0.0 mm
07:02 1.7 °C 1.3 °C 1011.4 hPa Calm     97 % 0.0 mm
07:12 1.7 °C 1.3 °C 1011.7 hPa Calm     97 % 0.0 mm
07:17 1.7 °C 1.3 °C 1012.1 hPa Calm     97 % 0.0 mm
07:22 1.7 °C 1.3 °C 1012.1 hPa Calm     97 % 0.0 mm
07:27 1.8 °C 1.4 °C 1012.1 hPa Calm     97 % 0.0 mm
07:32 1.9 °C 1.5 °C 1012.4 hPa Calm     97 % 0.0 mm
07:37 1.9 °C 1.5 °C 1012.4 hPa Calm     97 % 0.0 mm
07:42 2.1 °C 1.7 °C 1012.4 hPa Calm     97 % 0.0 mm
07:52 2.3 °C 2.0 °C 1012.8 hPa Calm     98 % 0.0 mm
07:57 2.4 °C 2.1 °C 1012.8 hPa Calm     98 % 0.0 mm
08:02 2.6 °C 2.3 °C 1012.8 hPa Calm     98 % 0.0 mm
08:07 2.7 °C 2.4 °C 1012.8 hPa Calm     98 % 0.0 mm
08:12 2.8 °C 2.5 °C 1012.8 hPa Calm     98 % 0.0 mm
08:17 2.9 °C 2.6 °C 1013.1 hPa Calm     98 % 0.0 mm
08:22 3.1 °C 2.8 °C 1013.1 hPa Calm     98 % 0.0 mm
08:27 3.2 °C 2.9 °C 1013.1 hPa Calm     98 % 0.0 mm
08:32 3.3 °C 3.0 °C 1013.1 hPa Calm     98 % 0.0 mm
08:37 3.4 °C 3.1 °C 1013.4 hPa Calm     98 % 0.0 mm
08:42 3.5 °C 3.2 °C 1013.4 hPa Calm     98 % 0.0 mm
08:47 3.6 °C 3.3 °C 1013.4 hPa Calm     98 % 0.0 mm
08:52 3.6 °C 3.3 °C 1013.4 hPa Calm     98 % 0.0 mm
08:57 3.8 °C 3.5 °C 1013.4 hPa Calm     98 % 0.0 mm
09:02 4.0 °C 3.7 °C 1013.8 hPa Calm   1.6 km/h 98 % 0.0 mm
09:07 4.1 °C 3.7 °C 1013.8 hPa Calm   1.6 km/h 97 % 0.0 mm
09:12 4.2 °C 3.8 °C 1013.8 hPa Calm   1.6 km/h 97 % 0.0 mm
09:17 4.4 °C 4.0 °C 1013.8 hPa Calm   1.6 km/h 97 % 0.0 mm
09:22 4.6 °C 4.2 °C 1014.1 hPa Calm   1.6 km/h 97 % 0.0 mm
09:27 4.9 °C 4.5 °C 1014.1 hPa Calm   1.6 km/h 97 % 0.0 mm
09:32 5.1 °C 4.5 °C 1014.1 hPa Calm     96 % 0.0 mm
09:37 5.0 °C 4.3 °C 1014.4 hPa Calm   1.6 km/h 95 % 0.0 mm
09:42 5.3 °C 4.6 °C 1014.4 hPa Calm   1.6 km/h 95 % 0.0 mm
09:47 5.4 °C 4.4 °C 1014.4 hPa Calm   3.2 km/h 93 % 0.0 mm
09:52 5.6 °C 4.1 °C 1014.4 hPa Calm   3.2 km/h 90 % 0.0 mm
09:57 6.4 °C 4.9 °C 1014.4 hPa Calm   3.2 km/h 90 % 0.0 mm
10:02 7.0 °C 5.0 °C 1014.8 hPa Calm   1.6 km/h 87 % 0.0 mm
10:12 7.6 °C 5.1 °C 1014.8 hPa Calm   1.6 km/h 84 % 0.0 mm
10:17 7.9 °C 5.0 °C 1014.8 hPa Calm   1.6 km/h 82 % 0.0 mm
10:22 8.1 °C 4.7 °C 1015.1 hPa Calm   1.6 km/h 79 % 0.0 mm
10:27 7.9 °C 4.7 °C 1015.1 hPa Calm   1.6 km/h 80 % 0.0 mm
10:32 8.1 °C 4.7 °C 1015.1 hPa WSW 1.6 km/h 1.6 km/h 79 % 0.0 mm
10:37 8.2 °C 5.3 °C 1015.1 hPa WSW 1.6 km/h 4.8 km/h 82 % 0.0 mm
10:42 7.9 °C 4.5 °C 1015.5 hPa Calm   4.8 km/h 79 % 0.0 mm
10:47 7.9 °C 4.7 °C 1015.5 hPa Calm   6.4 km/h 80 % 0.0 mm
10:52 8.1 °C 4.7 °C 1015.5 hPa SW 1.6 km/h 6.4 km/h 79 % 0.0 mm
10:57 8.1 °C 4.7 °C 1015.5 hPa WSW 3.2 km/h 4.8 km/h 79 % 0.0 mm
11:02 8.2 °C 4.8 °C 1015.5 hPa Calm   6.4 km/h 79 % 0.0 mm
11:07 8.3 °C 4.5 °C 1015.5 hPa Calm   6.4 km/h 77 % 0.0 mm
11:12 7.7 °C 4.1 °C 1015.5 hPa Calm   6.4 km/h 78 % 0.0 mm
11:17 7.5 °C 4.3 °C 1015.5 hPa Calm   4.8 km/h 80 % 0.0 mm
11:22 7.4 °C 4.2 °C 1015.5 hPa Calm   4.8 km/h 80 % 0.0 mm
11:27 7.3 °C 4.3 °C 1015.8 hPa Calm   4.8 km/h 81 % 0.0 mm
11:32 7.3 °C 3.9 °C 1015.8 hPa Calm   4.8 km/h 79 % 0.0 mm
11:37 7.4 °C 4.0 °C 1015.8 hPa Calm   3.2 km/h 79 % 0.0 mm
11:42 7.7 °C 4.5 °C 1015.8 hPa Calm   1.6 km/h 80 % 0.0 mm
11:47 8.1 °C 4.5 °C 1015.8 hPa Calm   1.6 km/h 78 % 0.0 mm
11:52 7.9 °C 4.3 °C 1015.8 hPa Calm   1.6 km/h 78 % 0.0 mm
11:57 8.1 °C 4.7 °C 1015.8 hPa Calm   1.6 km/h 79 % 0.0 mm
12:02 8.4 °C 4.6 °C 1016.1 hPa Calm   1.6 km/h 77 % 0.0 mm
12:07 8.7 °C 4.9 °C 1016.1 hPa Calm   1.6 km/h 77 % 0.0 mm
12:12 8.8 °C 4.6 °C 1016.1 hPa Calm   1.6 km/h 75 % 0.0 mm
12:17 8.6 °C 4.0 °C 1016.1 hPa Calm   1.6 km/h 73 % 0.0 mm
12:22 8.4 °C 4.4 °C 1016.1 hPa Calm   1.6 km/h 76 % 0.0 mm
12:27 8.3 °C 4.1 °C 1016.1 hPa Calm   1.6 km/h 75 % 0.0 mm
12:32 8.4 °C 4.0 °C 1016.1 hPa Calm   1.6 km/h 74 % 0.0 mm
12:37 8.5 °C 4.1 °C 1016.1 hPa Calm   1.6 km/h 74 % 0.0 mm
12:42 8.6 °C 4.0 °C 1016.1 hPa Calm     73 % 0.0 mm
12:47 8.4 °C 4.0 °C 1016.1 hPa Calm   1.6 km/h 74 % 0.0 mm
12:52 8.3 °C 4.3 °C 1016.1 hPa Calm   1.6 km/h 76 % 0.0 mm
12:57 8.3 °C 4.7 °C 1016.5 hPa Calm   3.2 km/h 78 % 0.0 mm
13:02 8.4 °C 4.4 °C 1016.5 hPa Calm   3.2 km/h 76 % 0.0 mm
13:12 8.2 °C 4.2 °C 1016.5 hPa Calm   3.2 km/h 76 % 0.0 mm
13:17 8.1 °C 4.3 °C 1016.5 hPa Calm   3.2 km/h 77 % 0.0 mm
13:22 7.9 °C 3.7 °C 1016.5 hPa Calm   1.6 km/h 75 % 0.0 mm
13:32 7.8 °C 4.2 °C 1016.8 hPa Calm   1.6 km/h 78 % 0.0 mm
13:37 7.8 °C 4.0 °C 1016.8 hPa Calm   1.6 km/h 77 % 0.0 mm
13:42 7.8 °C 3.6 °C 1016.8 hPa Calm   1.6 km/h 75 % 0.0 mm
13:47 7.9 °C 3.9 °C 1016.8 hPa Calm   1.6 km/h 76 % 0.0 mm
13:52 7.8 °C 4.2 °C 1016.8 hPa NE 1.6 km/h 3.2 km/h 78 % 0.0 mm
13:57 7.8 °C 4.2 °C 1016.8 hPa Calm   3.2 km/h 78 % 0.0 mm
14:07 7.9 °C 4.7 °C 1016.8 hPa East 1.6 km/h 3.2 km/h 80 % 0.0 mm
14:12 7.8 °C 4.6 °C 1016.8 hPa NE 3.2 km/h 6.4 km/h 80 % 0.0 mm
14:17 7.6 °C 4.5 °C 1016.8 hPa NE 1.6 km/h 6.4 km/h 81 % 0.0 mm
14:22 7.6 °C 4.7 °C 1016.8 hPa East 1.6 km/h 6.4 km/h 82 % 0.0 mm
14:27 7.6 °C 4.4 °C 1016.8 hPa NE 1.6 km/h 6.4 km/h 80 % 0.0 mm
14:32 7.7 °C 4.6 °C 1016.8 hPa ENE 4.8 km/h 4.8 km/h 81 % 0.0 mm
14:37 7.8 °C 4.7 °C 1016.8 hPa NE 1.6 km/h 6.4 km/h 81 % 0.0 mm
14:47 7.9 °C 4.5 °C 1016.8 hPa ENE 3.2 km/h 9.7 km/h 79 % 0.0 mm
14:52 8.0 °C 4.4 °C 1016.8 hPa NE 4.8 km/h 9.7 km/h 78 % 0.0 mm
14:57 8.1 °C 4.7 °C 1016.8 hPa Calm   6.4 km/h 79 % 0.0 mm
15:02 8.1 °C 4.3 °C 1016.8 hPa NE 3.2 km/h 6.4 km/h 77 % 0.0 mm
15:07 8.2 °C 4.6 °C 1016.8 hPa NE 1.6 km/h 6.4 km/h 78 % 0.0 mm
15:12 8.3 °C 4.7 °C 1016.8 hPa ESE 1.6 km/h 8.0 km/h 78 % 0.0 mm
15:17 8.4 °C 4.4 °C 1016.8 hPa NE 4.8 km/h 8.0 km/h 76 % 0.0 mm
15:22 8.5 °C 4.9 °C 1016.8 hPa ENE 3.2 km/h 6.4 km/h 78 % 0.0 mm
15:27 8.7 °C 5.1 °C 1017.2 hPa East 3.2 km/h 6.4 km/h 78 % 0.0 mm
15:32 8.8 °C 5.0 °C 1017.2 hPa NE 4.8 km/h 8.0 km/h 77 % 0.0 mm
15:37 9.0 °C 5.2 °C 1017.2 hPa NE 1.6 km/h 8.0 km/h 77 % 0.0 mm
15:47 9.3 °C 5.1 °C 1017.2 hPa NE 3.2 km/h 8.0 km/h 75 % 0.0 mm
15:52 9.4 °C 5.0 °C 1017.2 hPa ESE 1.6 km/h 8.0 km/h 74 % 0.0 mm
15:57 9.3 °C 4.9 °C 1017.2 hPa Calm   8.0 km/h 74 % 0.0 mm
16:02 9.3 °C 4.9 °C 1017.2 hPa NNE 4.8 km/h 8.0 km/h 74 % 0.0 mm
16:07 9.2 °C 5.0 °C 1017.2 hPa Calm   8.0 km/h 75 % 0.0 mm
16:12 8.9 °C 4.3 °C 1017.2 hPa Calm   9.7 km/h 73 % 0.0 mm
16:17 8.9 °C 4.7 °C 1017.2 hPa NE 3.2 km/h 9.7 km/h 75 % 0.0 mm
16:22 8.8 °C 3.8 °C 1017.2 hPa Calm   9.7 km/h 71 % 0.0 mm
16:27 8.8 °C 4.0 °C 1017.2 hPa Calm   6.4 km/h 72 % 0.0 mm
16:32 8.8 °C 4.0 °C 1017.2 hPa Calm   4.8 km/h 72 % 0.0 mm
16:37 8.7 °C 4.1 °C 1017.5 hPa Calm   4.8 km/h 73 % 0.0 mm
16:42 8.7 °C 3.9 °C 1017.5 hPa Calm   6.4 km/h 72 % 0.0 mm
16:47 8.7 °C 4.5 °C 1017.5 hPa NNE 4.8 km/h 6.4 km/h 75 % 0.0 mm
16:52 8.4 °C 4.2 °C 1017.5 hPa SE 1.6 km/h 6.4 km/h 75 % 0.0 mm
16:57 8.3 °C 4.1 °C 1017.5 hPa Calm   6.4 km/h 75 % 0.0 mm
17:02 8.2 °C 4.4 °C 1017.5 hPa ENE 1.6 km/h 6.4 km/h 77 % 0.0 mm
17:07 8.2 °C 4.0 °C 1017.8 hPa NNE 1.6 km/h 6.4 km/h 75 % 0.0 mm
17:12 8.2 °C 4.6 °C 1017.8 hPa Calm   6.4 km/h 78 % 0.0 mm
17:17 8.1 °C 4.3 °C 1017.8 hPa NE 3.2 km/h 6.4 km/h 77 % 0.0 mm
17:22 8.1 °C 4.3 °C 1017.8 hPa Calm   4.8 km/h 77 % 0.0 mm
17:27 8.0 °C 4.4 °C 1017.8 hPa Calm   9.7 km/h 78 % 0.0 mm
17:32 7.9 °C 4.5 °C 1017.8 hPa Calm   9.7 km/h 79 % 0.0 mm
17:37 7.9 °C 4.5 °C 1017.8 hPa Calm   6.4 km/h 79 % 0.0 mm
17:42 7.8 °C 4.4 °C 1018.2 hPa East 1.6 km/h 6.4 km/h 79 % 0.0 mm
17:47 7.8 °C 4.6 °C 1018.2 hPa Calm   6.4 km/h 80 % 0.0 mm
17:52 7.7 °C 4.3 °C 1018.2 hPa Calm   6.4 km/h 79 % 0.0 mm
17:57 7.7 °C 4.5 °C 1018.2 hPa NE 3.2 km/h 4.8 km/h 80 % 0.0 mm
18:02 7.6 °C 4.4 °C 1018.5 hPa Calm   4.8 km/h 80 % 0.0 mm
18:07 7.6 °C 4.4 °C 1018.5 hPa Calm   4.8 km/h 80 % 0.0 mm
18:12 7.4 °C 4.2 °C 1018.5 hPa ENE 1.6 km/h 6.4 km/h 80 % 0.0 mm
18:17 7.4 °C 4.4 °C 1018.5 hPa East 1.6 km/h 6.4 km/h 81 % 0.0 mm
18:22 7.3 °C 4.4 °C 1018.5 hPa Calm   4.8 km/h 82 % 0.0 mm
18:27 7.2 °C 4.3 °C 1018.5 hPa Calm   4.8 km/h 82 % 0.0 mm
18:32 7.1 °C 4.4 °C 1018.5 hPa Calm   4.8 km/h 83 % 0.0 mm
18:37 7.1 °C 4.1 °C 1018.5 hPa ENE 1.6 km/h 8.0 km/h 81 % 0.0 mm
18:42 7.1 °C 4.1 °C 1018.5 hPa Calm   8.0 km/h 81 % 0.0 mm
18:47 7.1 °C 4.2 °C 1018.8 hPa NE 3.2 km/h 8.0 km/h 82 % 0.0 mm
18:52 7.0 °C 4.1 °C 1018.8 hPa East 1.6 km/h 8.0 km/h 82 % 0.0 mm
18:57 6.9 °C 4.2 °C 1018.8 hPa ENE 1.6 km/h 8.0 km/h 83 % 0.0 mm
19:02 6.9 °C 4.0 °C 1018.8 hPa East 4.8 km/h 8.0 km/h 82 % 0.0 mm
19:07 6.9 °C 4.2 °C 1018.8 hPa NE 4.8 km/h 8.0 km/h 83 % 0.0 mm
19:12 6.8 °C 3.9 °C 1019.2 hPa ENE 3.2 km/h 8.0 km/h 82 % 0.0 mm
19:17 6.8 °C 4.1 °C 1019.2 hPa Calm   8.0 km/h 83 % 0.0 mm
19:22 6.8 °C 4.1 °C 1019.2 hPa NE 3.2 km/h 8.0 km/h 83 % 0.0 mm
19:27 6.8 °C 4.1 °C 1019.2 hPa ENE 1.6 km/h 8.0 km/h 83 % 0.0 mm
19:32 6.7 °C 4.0 °C 1019.2 hPa Calm   8.0 km/h 83 % 0.0 mm
19:37 6.7 °C 4.0 °C 1019.5 hPa NE 1.6 km/h 6.4 km/h 83 % 0.0 mm
19:42 6.6 °C 3.9 °C 1019.5 hPa NE 1.6 km/h 4.8 km/h 83 % 0.0 mm
19:47 6.6 °C 3.9 °C 1019.5 hPa Calm   6.4 km/h 83 % 0.0 mm
19:52 6.6 °C 3.9 °C 1019.9 hPa NE 1.6 km/h 6.4 km/h 83 % 0.0 mm
19:57 6.6 °C 3.9 °C 1019.9 hPa NNE 1.6 km/h 8.0 km/h 83 % 0.0 mm
20:02 6.5 °C 4.0 °C 1019.9 hPa East 1.6 km/h 8.0 km/h 84 % 0.0 mm
20:07 6.4 °C 3.7 °C 1019.9 hPa NE 4.8 km/h 8.0 km/h 83 % 0.0 mm
20:12 6.4 °C 3.7 °C 1019.9 hPa Calm   9.7 km/h 83 % 0.0 mm
20:17 6.4 °C 3.7 °C 1019.9 hPa NE 4.8 km/h 9.7 km/h 83 % 0.0 mm
20:22 6.4 °C 3.7 °C 1019.9 hPa NE 1.6 km/h 9.7 km/h 83 % 0.0 mm
20:27 6.4 °C 3.7 °C 1019.9 hPa NE 1.6 km/h 8.0 km/h 83 % 0.0 mm
20:32 6.3 °C 3.6 °C 1019.9 hPa NE 3.2 km/h 8.0 km/h 83 % 0.0 mm
20:37 6.3 °C 4.0 °C 1019.9 hPa NE 3.2 km/h 4.8 km/h 85 % 0.0 mm
20:42 6.2 °C 3.9 °C 1020.2 hPa ENE 1.6 km/h 6.4 km/h 85 % 0.0 mm
20:47 6.1 °C 3.8 °C 1019.9 hPa Calm   6.4 km/h 85 % 0.0 mm
20:52 6.1 °C 3.6 °C 1020.2 hPa ENE 3.2 km/h 6.4 km/h 84 % 0.0 mm
20:57 6.1 °C 3.6 °C 1020.2 hPa Calm   4.8 km/h 84 % 0.0 mm
21:02 6.1 °C 3.6 °C 1020.2 hPa NE 4.8 km/h 4.8 km/h 84 % 0.0 mm
21:07 6.1 °C 3.6 °C 1020.2 hPa East 1.6 km/h 6.4 km/h 84 % 0.0 mm
21:12 6.0 °C 3.8 °C 1020.5 hPa NE 1.6 km/h 6.4 km/h 86 % 0.0 mm
21:17 5.9 °C 3.7 °C 1020.5 hPa NE 4.8 km/h 6.4 km/h 86 % 0.0 mm
21:22 5.9 °C 3.6 °C 1020.5 hPa Calm   6.4 km/h 85 % 0.0 mm
21:32 5.8 °C 3.5 °C 1020.5 hPa NNE 3.2 km/h 6.4 km/h 85 % 0.0 mm
21:37 5.9 °C 3.6 °C 1020.5 hPa East 1.6 km/h 6.4 km/h 85 % 0.0 mm
21:42 5.9 °C 3.6 °C 1020.5 hPa NE 3.2 km/h 6.4 km/h 85 % 0.0 mm
21:47 5.8 °C 3.5 °C 1020.5 hPa ENE 1.6 km/h 6.4 km/h 85 % 0.0 mm
21:52 5.8 °C 3.6 °C 1020.5 hPa Calm   4.8 km/h 86 % 0.0 mm
21:57 5.7 °C 3.5 °C 1020.5 hPa Calm   4.8 km/h 86 % 0.0 mm
22:02 5.7 °C 3.7 °C 1020.5 hPa NE 1.6 km/h 4.8 km/h 87 % 0.0 mm
22:07 5.7 °C 3.7 °C 1020.5 hPa Calm   4.8 km/h 87 % 0.0 mm
22:12 5.6 °C 3.6 °C 1020.5 hPa Calm   1.6 km/h 87 % 0.0 mm
22:17 5.6 °C 3.6 °C 1020.5 hPa Calm   1.6 km/h 87 % 0.0 mm
22:22 5.7 °C 3.5 °C 1020.5 hPa Calm   3.2 km/h 86 % 0.0 mm
22:27 5.7 °C 3.5 °C 1020.9 hPa Calm   4.8 km/h 86 % 0.0 mm
22:32 5.7 °C 3.5 °C 1020.5 hPa Calm   6.4 km/h 86 % 0.0 mm
22:37 5.7 °C 3.5 °C 1020.9 hPa NE 1.6 km/h 6.4 km/h 86 % 0.0 mm
22:42 5.7 °C 3.5 °C 1020.9 hPa Calm   6.4 km/h 86 % 0.0 mm
22:47 5.7 °C 3.5 °C 1020.9 hPa Calm   6.4 km/h 86 % 0.0 mm
22:52 5.7 °C 3.5 °C 1020.9 hPa NE 1.6 km/h 6.4 km/h 86 % 0.0 mm
22:57 5.7 °C 3.5 °C 1020.9 hPa Calm   6.4 km/h 86 % 0.0 mm
23:02 5.7 °C 3.5 °C 1020.9 hPa Calm   6.4 km/h 86 % 0.0 mm
23:07 5.7 °C 3.5 °C 1021.2 hPa NE 3.2 km/h 6.4 km/h 86 % 0.0 mm
23:12 5.7 °C 3.5 °C 1021.2 hPa Calm   6.4 km/h 86 % 0.0 mm
23:17 5.7 °C 3.5 °C 1021.2 hPa East 1.6 km/h 6.4 km/h 86 % 0.0 mm
23:22 5.7 °C 3.5 °C 1021.2 hPa NE 6.4 km/h 8.0 km/h 86 % 0.0 mm
23:27 5.8 °C 3.5 °C 1021.2 hPa NE 4.8 km/h 14.5 km/h 85 % 0.0 mm
23:37 5.8 °C 3.6 °C 1021.2 hPa SE 3.2 km/h 14.5 km/h 86 % 0.0 mm
23:42 5.8 °C 3.6 °C 1021.2 hPa NE 9.7 km/h 11.3 km/h 86 % 0.0 mm
23:47 5.8 °C 3.6 °C 1021.2 hPa NE 6.4 km/h 11.3 km/h 86 % 0.0 mm
23:52 5.8 °C 3.8 °C 1021.2 hPa ENE 4.8 km/h 12.9 km/h 87 % 0.0 mm
23:57 5.7 °C 3.7 °C 1021.2 hPa East 1.6 km/h 12.9 km/h 87 % 0.0 mm
Meteo18
Compliments of Weather Underground - 4 mb

Script developed by  Jim McMurry - jmcmurry@mwt.net Adapted for the template by  Wim van der Kuil - Leuven-Template.eu

You find our weather info also at:

European Weather Network

Weather Underground

Equipment we use:

Weather-station
Davis Vue

Weather-program
Meteohub

Weather-server
Raspberry PI 2 B+

Provider
1 and 1

Davis Vue

Meteohub

Raspberry PI 2 B+

1 and 1